This is the latest recevied weather packets stored in our database for station/object N2XP. If no packets are shown the sender has not sent any weather packets the latest 10 day(s).
| Time | Temp. | Humidity | Pressure | Rain* | Wind** | Luminosity | Snow |
|---|---|---|---|---|---|---|---|
| 1777511734 | 9.44° C | 92% | 1008.2 hPa | 1.27 mm | - | - | - |
| 1777510823 | 10° C | 92% | 1008.3 hPa | 1.02 mm | - | - | - |
| 1777509927 | 10° C | 91% | 1008.2 hPa | 0.76 mm | - | - | - |
| 1777509027 | 10° C | 90% | 1007.9 hPa | 0.51 mm | - | - | - |
| 1777508121 | 10.56° C | 88% | 1008.1 hPa | 0.51 mm | - | - | - |
| 1777507220 | 11.11° C | 85% | 1007.8 hPa | 0.25 mm | - | - | - |
| 1777506319 | 11.11° C | 84% | 1007.7 hPa | 0 mm | - | - | - |
| 1777505416 | 11.11° C | 83% | 1007.8 hPa | 0 mm | - | - | - |
| 1777504519 | 11.67° C | 84% | 1008.1 hPa | 0 mm | - | - | - |
| 1777503615 | 11.67° C | 83% | 1008.2 hPa | 0 mm | - | - | - |
| 1777502710 | 11.67° C | 84% | 1008 hPa | 0 mm | - | - | - |
| 1777501809 | 12.22° C | 83% | 1008 hPa | 0 mm | - | - | - |
| 1777500969 | 12.22° C | 81% | 1008 hPa | 0 mm | - | - | - |
| 1777500008 | 13.33° C | 74% | 1008.1 hPa | 0 mm | - | - | - |
| 1777499109 | 14.44° C | 71% | 1008.3 hPa | 0 mm | - | - | - |
| 1777498205 | 15° C | 71% | 1008.1 hPa | 0 mm | - | - | - |
| 1777497308 | 15.56° C | 68% | 1008.4 hPa | 0 mm | - | - | - |
| 1777496402 | 16.11° C | 67% | 1008.4 hPa | 0 mm | - | - | - |
| 1777495502 | 16.11° C | 67% | 1008.4 hPa | 0 mm | - | - | - |
| 1777494660 | 16.67° C | 64% | 1008.7 hPa | 0 mm | - | - | - |
| 1777493761 | 17.22° C | 63% | 1008.7 hPa | 0 mm | - | - | - |
| 1777492865 | 17.78° C | 62% | 1009 hPa | 0 mm | - | - | - |
| 1777491964 | 17.22° C | 63% | 1009.2 hPa | 0 mm | - | - | - |
| 1777491069 | 17.22° C | 61% | 1009.6 hPa | 0 mm | - | - | - |
| 1777490171 | 17.22° C | 63% | 1009.8 hPa | 0 mm | - | - | - |
* Rain latest hour (hover to see other rain measurements)
** Current wind speed in m/s (hover to see current wind gust speed)